Denver International CA :: St Francis 175

liberation: 2021-09-04  07:25     latitude: 39.701281     longitude: -102.272610 235 birds
# LOFT PRING MILES ARRIVAL SPEED ToWin
1 Frank H CAC AU21-FRAN-0068 147.726 2021-09-04 10:41:32.313 1322.884 00:00:00
2 Pitita Loft AU21-FH-21447 149.265 2021-09-04 10:44:28.224 1317.019 00:00:53
3 Pitita Loft AU21-FH-21394 149.265 2021-09-04 10:44:29.443 1316.885 00:00:54
4 Pitita Loft AU21-FH-21425 149.265 2021-09-04 10:44:44.660 1315.213 00:01:09
5 Pitita Loft AU21-FH-21393 149.265 2021-09-04 10:44:46.027 1315.063 00:01:11
6 Pitita Loft AU21-FH-21412 149.265 2021-09-04 10:44:48.224 1314.822 00:01:13
7 Pitita Loft AU21-FH-21433 149.265 2021-09-04 10:44:48.934 1314.744 00:01:14
8 HNOS Valenzuela Loft AU21-FH-21865 147.699 2021-09-04 10:43:24.776 1310.148 00:01:55
9 HNOS Valenzuela Loft AU21-FH-21516 147.699 2021-09-04 10:43:34.060 1309.127 00:02:04
10 HNOS Valenzuela Loft AU21-FH-21556 147.699 2021-09-04 10:43:59.957 1306.287 00:02:30
11 Frank H CAC AU21-FH-21817 147.726 2021-09-04 10:44:37.921 1302.385 00:03:06
12 Frank H CAC AU21-FH-21808 147.726 2021-09-04 10:44:38.865 1302.282 00:03:07
13 Frank H CAC AU21-AL-6034 147.726 2021-09-04 10:44:39.894 1302.170 00:03:08
14 Frank H CAC AU21-HPR-0113 147.726 2021-09-04 10:44:40.630 1302.090 00:03:08
15 Frank H CAC AU21-FRAN-0054 147.726 2021-09-04 10:44:41.025 1302.047 00:03:09
16 Frank H CAC AU21-FH-21821 147.726 2021-09-04 10:44:41.941 1301.948 00:03:10
17 Frank H CAC AU21-AL-6024 147.726 2021-09-04 10:44:42.317 1301.907 00:03:10
18 Frank H CAC AU21-AL-6033 147.726 2021-09-04 10:45:33.478 1296.372 00:04:01
19 Frank H CAC AU21-FH-21825 147.726 2021-09-04 10:45:34.799 1296.229 00:04:02
20 Frank H CAC AU21-FRAN-0052 147.726 2021-09-04 10:45:35.185 1296.188 00:04:03
21 Frank H CAC AU21-FRAN-0051 147.726 2021-09-04 10:45:35.591 1296.144 00:04:03
22 Frank H CAC AU21-FRAN-0046 147.726 2021-09-04 10:45:36.574 1296.038 00:04:04
23 Frank H CAC AU21-FRAN-0025 147.726 2021-09-04 10:45:36.950 1295.998 00:04:05
24 Frank H CAC AU21-FH-21803 147.726 2021-09-04 10:45:38.483 1295.833 00:04:06
25 Mata Loft AU21-ZEPH-2163 142.279 2021-09-04 10:38:18.114 1295.437 00:04:01
26 Mile High Aviators AU21-ARPU-78002 147.413 2021-09-04 10:47:08.539 1283.489 00:06:01
27 Tuna Family Loft AU21-TUNA-0072 124.628 2021-09-04 10:15:58.369 1282.923 00:05:10
28 Tuna Family Loft AU21-TUNA-0068 124.628 2021-09-04 10:16:02.378 1282.422 00:05:14
29 HNOS Valenzuela Loft AU21-FH-21567 147.699 2021-09-04 10:48:30.823 1277.311 00:07:01
30 Tuna Family Loft AU21-TUNA-0064 124.628 2021-09-04 10:16:51.124 1276.359 00:06:03
31 Tuna Family Loft AU21-FOYS-7156 124.628 2021-09-04 10:17:14.553 1273.466 00:06:26
32 Frank H CAC AU21-ARPU-18968 147.726 2021-09-04 10:49:41.500 1270.192 00:08:09
33 Frank H CAC AU21-FRAN-0100 147.726 2021-09-04 10:49:42.152 1270.124 00:08:10
34 HNOS Valenzuela Loft AU21-FH-21581 147.699 2021-09-04 10:50:56.781 1262.223 00:09:27
35 Pitita Loft AU21-FH-21521 149.265 2021-09-04 10:53:12.533 1261.744 00:09:37
36 Beto Loft AU21-FH-21465 146.875 2021-09-04 10:49:58.122 1261.165 00:09:34
37 Beto Loft AU21-FH-21494 146.875 2021-09-04 10:50:02.177 1260.750 00:09:38
38 Pitita Loft AU21-FH-21423 149.265 2021-09-04 10:53:23.198 1260.668 00:09:48
39 Pitita Loft AU21-HPR-0127 149.265 2021-09-04 10:53:39.883 1258.988 00:10:05
40 Frank H CAC AU21-FH-21837 147.726 2021-09-04 10:51:46.942 1257.349 00:10:15
41 Frank H CAC AU21-FH-21833 147.726 2021-09-04 10:51:47.053 1257.338 00:10:15
42 Mile High Aviators AU21-ARPU-78021 147.413 2021-09-04 10:51:21.838 1257.232 00:10:14
43 Mile High Aviators AU21-ARPU-78039 147.413 2021-09-04 10:52:28.496 1250.500 00:11:21
44 Mile High Aviators AU21-ARPU-78028 147.413 2021-09-04 10:52:31.378 1250.211 00:11:24
45 Mile High Aviators AU21-ARPU-78013 147.413 2021-09-04 10:52:31.757 1250.173 00:11:24
46 Mile High Aviators AU21-ARPU-78023 147.413 2021-09-04 10:52:33.426 1250.005 00:11:26
47 Silver Dollar Loft AU21-AA-35006 136.931 2021-09-04 10:37:50.978 1249.666 00:10:40
48 Silver Dollar Loft AU21-SILV-0027 136.931 2021-09-04 10:37:52.028 1249.553 00:10:41
49 Silver Dollar Loft AU21-SILV-0054 136.931 2021-09-04 10:37:53.209 1249.426 00:10:43
50 Silver Dollar Loft AU21-SILV-0043 136.931 2021-09-04 10:37:57.030 1249.013 00:10:46
51 Frank H CAC AU21-FRAN-0026 147.726 2021-09-04 10:53:18.321 1248.156 00:11:46
52 Frank H CAC AU21-FRAN-0023 147.726 2021-09-04 10:53:19.751 1248.014 00:11:47
53 Silver Dollar Loft AU21-SILV-0039 136.931 2021-09-04 10:38:08.209 1247.808 00:10:58
54 Silver Dollar Loft AU21-SILV-0014 136.931 2021-09-04 10:38:09.613 1247.657 00:10:59
55 Pitita Loft AU21-FH-21488 149.265 2021-09-04 10:55:35.845 1247.434 00:12:01
56 Pitita Loft AU21-FH-21415 149.265 2021-09-04 10:55:37.496 1247.271 00:12:02
57 Frank H CAC AU21-FRAN-0071 147.726 2021-09-04 10:53:29.386 1247.052 00:11:57
58 Frank H CAC AU21-FH-21834 147.726 2021-09-04 10:53:30.785 1246.913 00:11:58
59 Tuna Family Loft AU21-TUNA-0020 124.628 2021-09-04 10:21:03.867 1245.822 00:10:15
60 Pitita Loft AU21-FH-21436 149.265 2021-09-04 10:56:02.512 1244.807 00:12:27
61 Tuna Family Loft AU21-TUNA-0057 124.628 2021-09-04 10:22:01.432 1239.070 00:11:13
62 Frank H CAC AU21-FRAN-0024 147.726 2021-09-04 10:55:12.645 1236.843 00:13:40
63 HNOS Valenzuela Loft AU21-FH-21575 147.699 2021-09-04 10:55:33.866 1234.540 00:14:04
64 HNOS Valenzuela Loft AU21-FH-21585 147.699 2021-09-04 10:55:34.894 1234.440 00:14:05
65 HNOS Valenzuela Loft AU21-FH-21584 147.699 2021-09-04 10:55:38.659 1234.072 00:14:08
66 HNOS Valenzuela Loft AU21-CHP-4196 147.699 2021-09-04 10:55:39.051 1234.034 00:14:09
67 Tuna Family Loft AU21-TUNA-0056 124.628 2021-09-04 10:22:45.103 1233.996 00:11:57
68 HNOS Valenzuela Loft AU21-FH-21557 147.699 2021-09-04 10:55:42.342 1233.712 00:14:12
69 Tuna Family Loft AU21-MART-0914 124.628 2021-09-04 10:22:49.860 1233.446 00:12:01
70 HNOS Valenzuela Loft AU21-FH-21583 147.699 2021-09-04 10:55:45.973 1233.358 00:14:16
71 Mata Loft AU21-MATA-0111 142.279 2021-09-04 10:48:08.762 1232.662 00:13:51
72 Mata Loft AU21-ESM-1386 142.279 2021-09-04 10:48:09.621 1232.575 00:13:52
73 HNOS Valenzuela Loft AU21-HPR-0133 147.699 2021-09-04 10:55:54.159 1232.560 00:14:24
74 Silver Dollar Loft AU21-SILV-0071 136.931 2021-09-04 10:40:51.651 1230.454 00:13:41
75 Tuna Family Loft AU21-TUNA-0001 124.628 2021-09-04 10:23:17.250 1230.288 00:12:29
76 Pitita Loft AU21-FH-21441 149.265 2021-09-04 10:58:35.027 1229.992 00:15:00
77 Mata Loft AU21-ESM-1382 142.279 2021-09-04 10:48:39.559 1229.555 00:14:22
78 Frank H CAC AU21-FRAN-0042 147.726 2021-09-04 10:56:37.437 1228.583 00:15:05
79 Mile High Aviators AU21-FH-21576 147.413 2021-09-04 10:56:19.906 1227.678 00:15:13
80 HNOS Valenzuela Loft AU21-ARPU-75954 147.699 2021-09-04 10:56:48.464 1227.293 00:15:18
81 Silver Dollar Loft AU21-SILV-0005 136.931 2021-09-04 10:41:30.261 1226.424 00:14:20
82 Tuna Family Loft AU21-TUNA-0008 124.628 2021-09-04 10:24:00.172 1225.371 00:13:12
83 Tuna Family Loft AU21-FOYS-7172 124.628 2021-09-04 10:24:04.407 1224.888 00:13:16
84 Silver Dollar Loft AU21-JFL-0326 136.931 2021-09-04 10:41:48.953 1224.483 00:14:38
85 Tuna Family Loft AU21-TUNA-0073 124.628 2021-09-04 10:24:26.751 1222.346 00:13:38
86 Pitita Loft AU21-FH-21338 149.265 2021-09-04 11:00:02.979 1221.608 00:16:28
87 Pitita Loft AU21-HPR-0137 149.265 2021-09-04 11:00:06.044 1221.318 00:16:31
88 Frank H CAC AU21-FH-21832 147.726 2021-09-04 10:57:55.297 1221.096 00:16:23
89 Mile High Aviators AU21-ARPU-78024 147.413 2021-09-04 10:57:33.075 1220.635 00:16:26
90 Beto Loft AU21-FH-21554 146.875 2021-09-04 10:56:49.647 1220.330 00:16:25
91 Frank H CAC AU21-CHP-4195 147.726 2021-09-04 10:58:03.732 1220.290 00:16:31
92 Beto Loft AU21-FH-21463 146.875 2021-09-04 10:56:51.284 1220.173 00:16:27
93 Beto Loft AU21-FH-21474 146.875 2021-09-04 10:57:02.795 1219.069 00:16:38
94 Mile High Aviators AU21-ARPU-78052 147.413 2021-09-04 10:58:05.373 1217.551 00:16:58
95 Mile High Aviators AU21-AA-35054 147.413 2021-09-04 10:58:06.977 1217.399 00:17:00
96 Beto Loft AU21-FH-21491 146.875 2021-09-04 10:58:04.013 1213.231 00:17:40
97 Mile High Aviators AU21-ARPU-78018 147.413 2021-09-04 10:59:06.089 1211.797 00:17:59
98 Mile High Aviators AU21-FH-21963 147.413 2021-09-04 10:59:09.540 1211.471 00:18:02
99 Mile High Aviators AU21-ARPU-78058 147.413 2021-09-04 10:59:09.920 1211.435 00:18:03
100 Mile High Aviators AU21-AA-35009 147.413 2021-09-04 10:59:15.756 1210.885 00:18:08
101 Tuna Family Loft AU21-FOYS-7194 124.628 2021-09-04 10:26:16.021 1210.066 00:15:28
102 Frank H CAC AU21-HPR-0150 147.726 2021-09-04 10:59:59.990 1209.292 00:18:28
103 Tuna Family Loft AU21-TUNA-0080 124.628 2021-09-04 10:26:48.819 1206.428 00:16:00
104 Beto Loft AU21-FH-21457 146.875 2021-09-04 10:59:37.655 1204.409 00:19:13
105 Mata Loft AU21-MATA-0170 142.279 2021-09-04 10:53:22.139 1201.764 00:19:05
106 Mata Loft AU21-MATA-0162 142.279 2021-09-04 10:53:29.788 1201.029 00:19:12
107 Mata Loft AU21-MATA-0156 142.279 2021-09-04 10:53:31.625 1200.853 00:19:14
108 Silver Dollar Loft AU21-SILV-0001 136.931 2021-09-04 10:45:46.808 1200.307 00:18:36
109 Silver Dollar Loft AU21-SILV-0064 136.931 2021-09-04 10:46:20.880 1196.921 00:19:10
110 Silver Dollar Loft AU21-SILV-0063 136.931 2021-09-04 10:46:22.200 1196.791 00:19:12
111 Mata Loft AU21-MATA-0109 142.279 2021-09-04 10:55:14.719 1191.039 00:20:57
112 Mata Loft AU21-MATA-0161 142.279 2021-09-04 10:55:19.595 1190.579 00:21:02
113 Mata Loft AU21-ARPU-10625 142.279 2021-09-04 10:55:20.420 1190.501 00:21:03
114 Frank H CAC AU21-FRAN-0067 147.726 2021-09-04 11:04:30.945 1184.415 00:22:59
115 Pitita Loft AU21-FH-21400 149.265 2021-09-04 11:06:51.400 1184.126 00:23:16
116 Mile High Aviators AU21-ARPU-78062 147.413 2021-09-04 11:04:07.150 1184.047 00:23:00
117 Pitita Loft AU21-FH-21440 149.265 2021-09-04 11:06:56.346 1183.687 00:23:21
118 Pitita Loft AU21-FH-21392 149.265 2021-09-04 11:06:57.449 1183.588 00:23:22
119 Mata Loft AU21-MATA-0163 142.279 2021-09-04 10:56:47.063 1182.383 00:22:30
120 HNOS Valenzuela Loft AU21-FH-21596 147.699 2021-09-04 11:07:21.326 1169.075 00:25:51
121 Pitita Loft AU21-FH-21406 149.265 2021-09-04 11:09:54.564 1168.054 00:26:19
122 Pitita Loft AU21-WIND-0335 149.265 2021-09-04 11:10:31.112 1164.899 00:26:56
123 Pitita Loft AU21-FH-21397 149.265 2021-09-04 11:10:33.063 1164.731 00:26:58
124 Silver Dollar Loft AU21-SILV-0016 136.931 2021-09-04 10:52:34.390 1161.025 00:25:24
125 Pitita Loft AU21-FH-21395 149.265 2021-09-04 11:11:17.527 1160.917 00:27:42
126 Mata Loft AU21-MATA-0148 142.279 2021-09-04 11:00:51.632 1160.056 00:26:34
127 Frank H CAC AU21-FRAN-0011 147.726 2021-09-04 11:10:34.205 1152.625 00:29:02
128 Frank H CAC AU21-AL-6040 147.726 2021-09-04 11:10:44.184 1151.776 00:29:12
129 Frank H CAC AU21-FRAN-0005 147.726 2021-09-04 11:13:27.934 1138.017 00:31:56
130 Pitita Loft AU21-FH-21439 149.265 2021-09-04 11:18:30.943 1125.005 00:34:56
131 Mile High Aviators AU21-ARPU-78026 147.413 2021-09-04 11:16:43.219 1119.658 00:35:36
132 Tuna Family Loft AU21-MART-0950 124.628 2021-09-04 10:41:13.902 1117.786 00:30:25
133 Frank H CAC AU21-FSM-1341 147.726 2021-09-04 11:23:30.566 1090.094 00:41:58
134 Pitita Loft AU21-FH-21390 149.265 2021-09-04 11:26:22.297 1088.389 00:42:47
135 Nuevitas Loft AU21-ARPU-101705 137.99 2021-09-04 11:09:07.071 1083.639 00:40:32
136 Tuna Family Loft AU21-MART-0928 124.628 2021-09-04 10:49:46.736 1071.131 00:38:58
137 Silver Dollar Loft AU21-SILV-0055 136.931 2021-09-04 11:10:30.636 1068.676 00:43:20
138 Silver Dollar Loft AU21-SILV-0047 136.931 2021-09-04 11:10:31.675 1068.594 00:43:21
139 Mile High Aviators AU21-ESM-1475 147.413 2021-09-04 11:27:49.404 1068.461 00:46:42
140 Mile High Aviators AU21-ARPU-78012 147.413 2021-09-04 11:30:10.119 1058.241 00:49:03
141 Tuna Family Loft AU21-TUNA-0046 124.628 2021-09-04 10:53:01.569 1054.411 00:42:13
142 HNOS Valenzuela Loft AU21-FH-21586 147.699 2021-09-04 11:34:43.413 1040.952 00:53:13
143 Nuevitas Loft AU21-ARPU-101720 137.99 2021-09-04 11:19:20.954 1036.329 00:50:46
144 Tuna Family Loft AU21-MART-0910 124.628 2021-09-04 10:59:13.006 1023.939 00:48:25
145 Beto Loft AU21-FH-21487 146.875 2021-09-04 11:38:57.988 1017.849 00:58:34
146 Mata Loft AU21-ESM-1373 142.279 2021-09-04 11:34:01.112 1005.589 00:59:44
147 Pitita Loft AU21-FH-21333 149.265 2021-09-04 11:48:18.645 997.704 01:04:43
148 Tuna Family Loft AU21-TUNA-0002 124.628 2021-09-04 11:04:58.430 997.141 00:54:10
149 Tuna Family Loft AU21-FOYS-7188 124.628 2021-09-04 11:05:09.798 996.283 00:54:21
150 Tuna Family Loft AU21-ARPU-78001 124.628 2021-09-04 11:05:10.144 996.257 00:54:22
151 Nuevitas Loft AU21-ARPU-101714 137.99 2021-09-04 11:32:00.097 983.244 01:03:25
152 Mile High Aviators AU21-ESM-1471 147.413 2021-09-04 11:49:55.688 979.313 01:08:48
153 Tuna Family Loft AU21-TUNA-0081 124.628 2021-09-04 11:09:58.308 974.989 00:59:10
154 Tuna Family Loft AU21-TUNA-0078 124.628 2021-09-04 11:10:29.854 972.716 00:59:41
155 Tuna Family Loft AU21-CHP-4192 124.628 2021-09-04 11:20:21.310 931.974 01:09:33
156 Tuna Family Loft AU21-FH-21176 124.628 2021-09-04 11:21:25.052 927.786 01:10:37
157 Nuevitas Loft AU21-ARPU-4988 137.99 2021-09-04 11:49:20.974 918.719 01:20:46
158 Tuna Family Loft AU21-TUNA-0067 124.628 2021-09-04 11:26:52.045 906.881 01:16:04
159 Mata Loft AU21-MATA-0164 142.279 2021-09-04 12:05:15.215 893.513 01:30:58
160 Mata Loft AU21-MATA-0124 142.279 2021-09-04 12:06:51.674 888.417 01:32:34
161 Silver Dollar Loft AU21-SILV-0052 136.931 2021-09-04 12:07:01.228 854.540 01:39:51
162 Tuna Family Loft AU21-TUNA-0031 124.628 2021-09-04 11:43:49.405 847.470 01:33:01
163 Silver Dollar Loft AU21-SILV-0072 136.931 2021-09-04 12:14:07.982 833.518 01:46:57
164 Tuna Family Loft AU21-FOYS-7171 124.628 2021-09-04 11:49:44.122 828.544 01:38:56
165 Silver Dollar Loft AU21-SILV-0041 136.931 2021-09-04 12:17:54.200 822.789 01:50:44
166 Tuna Family Loft AU21-TUNA-0070 124.628 2021-09-04 12:00:16.655 796.814 01:49:28
167 Tuna Family Loft AU21-MART-0922 124.628 2021-09-04 12:04:37.716 784.415 01:53:49
168 Silver Dollar Loft AU21-SILV-0004 136.931 2021-09-04 12:44:01.872 755.405 02:16:51
169 Tuna Family Loft AU21-FOYS-7175 124.628 2021-09-04 12:31:23.857 715.883 02:20:35
170 Mata Loft AU21-MATA-0131 142.279 2021-09-04 13:17:16.943 710.823 02:42:59
171 Tuna Family Loft AU21-ARPU-100012 124.628 2021-09-04 12:35:11.995 707.108 02:24:24
172 Tuna Family Loft AU21-FOYS-7144 124.628 2021-09-04 12:40:18.760 695.643 02:29:30
173 Mata Loft AU21-MATA-0104 142.279 2021-09-04 13:30:39.694 684.814 02:56:22
174 Silver Dollar Loft AU21-SILV-0048 136.931 2021-09-04 13:19:52.358 679.110 02:52:42
175 Silver Dollar Loft AU21-SILV-0040 136.931 2021-09-04 13:19:53.913 679.061 02:52:43
176 Silver Dollar Loft AU21-SILV-0051 136.931 2021-09-04 13:29:53.896 660.452 03:02:43
177 Tuna Family Loft AU21-TUNA-0082 124.628 2021-09-04 13:03:06.394 648.745 02:52:18
Frank H CAC AU21-FH-21814 0 0000-00-00 00:00:00.000 0.000 00:00:00
HNOS Valenzuela Loft AU21-FH-21518 0 0000-00-00 00:00:00.000 0.000 00:00:00
HNOS Valenzuela Loft AU21-FH-21525 0 0000-00-00 00:00:00.000 0.000 00:00:00
HNOS Valenzuela Loft AU21-FH-21555 0 0000-00-00 00:00:00.000 0.000 00:00:00
HNOS Valenzuela Loft AU21-FH-21595 0 0000-00-00 00:00:00.000 0.000 00:00:00
HNOS Valenzuela Loft AU21-WSM-0561 0 0000-00-00 00:00:00.000 0.000 00:00:00
Mata Loft AU21-MATA-0115 0 0000-00-00 00:00:00.000 0.000 00:00:00
Mata Loft AU21-MATA-0158 0 0000-00-00 00:00:00.000 0.000 00:00:00
Mile High Aviators AU21-AA-35011 0 0000-00-00 00:00:00.000 0.000 00:00:00
Mile High Aviators AU21-ARPU-78008 0 0000-00-00 00:00:00.000 0.000 00:00:00
Mile High Aviators AU21-ARPU-78017 0 0000-00-00 00:00:00.000 0.000 00:00:00
Mile High Aviators AU21-ARPU-78020 0 0000-00-00 00:00:00.000 0.000 00:00:00
Mile High Aviators AU21-FH-21466 0 0000-00-00 00:00:00.000 0.000 00:00:00
Mile High Aviators AU21-FH-21572 0 0000-00-00 00:00:00.000 0.000 00:00:00
Mile High Aviators AU21-FH-21968 0 0000-00-00 00:00:00.000 0.000 00:00:00
Nuevitas Loft AU21-ARPU-101706 0 0000-00-00 00:00:00.000 0.000 00:00:00
Nuevitas Loft AU21-ARPU-101709 0 0000-00-00 00:00:00.000 0.000 00:00:00
Nuevitas Loft AU21-ARPU-4902 0 0000-00-00 00:00:00.000 0.000 00:00:00
Nuevitas Loft AU21-ARPU-4909 0 0000-00-00 00:00:00.000 0.000 00:00:00
Nuevitas Loft AU21-ARPU-4924 0 0000-00-00 00:00:00.000 0.000 00:00:00
Nuevitas Loft AU21-ARPU-4931 0 0000-00-00 00:00:00.000 0.000 00:00:00
Nuevitas Loft AU21-ARPU-4968 0 0000-00-00 00:00:00.000 0.000 00:00:00
Nuevitas Loft AU21-ARPU-4985 0 0000-00-00 00:00:00.000 0.000 00:00:00
Nuevitas Loft AU21-ARPU-4986 0 0000-00-00 00:00:00.000 0.000 00:00:00
Nuevitas Loft AU21-NAPL-0611 0 0000-00-00 00:00:00.000 0.000 00:00:00
Nuevitas Loft AU21-NAPL-0612 0 0000-00-00 00:00:00.000 0.000 00:00:00
Nuevitas Loft AU21-NAPL-0625 0 0000-00-00 00:00:00.000 0.000 00:00:00
Nuevitas Loft AU21-NAPL-0631 0 0000-00-00 00:00:00.000 0.000 00:00:00
Pitita Loft AU21-FH-21414 0 0000-00-00 00:00:00.000 0.000 00:00:00
Pitita Loft AU21-FH-21416 0 0000-00-00 00:00:00.000 0.000 00:00:00
Pitita Loft AU21-FH-21424 0 0000-00-00 00:00:00.000 0.000 00:00:00
Silver Dollar Loft AU21-AA-35004 0 0000-00-00 00:00:00.000 0.000 00:00:00
Silver Dollar Loft AU21-BEST-0044 0 0000-00-00 00:00:00.000 0.000 00:00:00
Silver Dollar Loft AU21-BEST-0065 0 0000-00-00 00:00:00.000 0.000 00:00:00
Silver Dollar Loft AU21-SILV-0029 0 0000-00-00 00:00:00.000 0.000 00:00:00
Silver Dollar Loft AU21-SILV-0037 0 0000-00-00 00:00:00.000 0.000 00:00:00
Silver Dollar Loft AU21-SILV-0049 0 0000-00-00 00:00:00.000 0.000 00:00:00
Silver Dollar Loft AU21-SILV-0062 0 0000-00-00 00:00:00.000 0.000 00:00:00
Silver Dollar Loft AU21-SILV-0121 0 0000-00-00 00:00:00.000 0.000 00:00:00
Silver Dollar Loft AU21-ZEPH-2195 0 0000-00-00 00:00:00.000 0.000 00:00:00
Tuna Family Loft AU21-FOYS-7198 0 0000-00-00 00:00:00.000 0.000 00:00:00
Tuna Family Loft AU21-MART-0913 0 0000-00-00 00:00:00.000 0.000 00:00:00
Tuna Family Loft AU21-MART-0918 0 0000-00-00 00:00:00.000 0.000 00:00:00
Tuna Family Loft AU21-TUNA-0009 0 0000-00-00 00:00:00.000 0.000 00:00:00
Tuna Family Loft AU21-TUNA-0011 0 0000-00-00 00:00:00.000 0.000 00:00:00
Tuna Family Loft AU21-TUNA-0012 0 0000-00-00 00:00:00.000 0.000 00:00:00
Tuna Family Loft AU21-TUNA-0015 0 0000-00-00 00:00:00.000 0.000 00:00:00
Tuna Family Loft AU21-TUNA-0018 0 0000-00-00 00:00:00.000 0.000 00:00:00
Tuna Family Loft AU21-TUNA-0022 0 0000-00-00 00:00:00.000 0.000 00:00:00
Tuna Family Loft AU21-TUNA-0042 0 0000-00-00 00:00:00.000 0.000 00:00:00
Tuna Family Loft AU21-TUNA-0045 0 0000-00-00 00:00:00.000 0.000 00:00:00
Tuna Family Loft AU21-TUNA-0047 0 0000-00-00 00:00:00.000 0.000 00:00:00
Tuna Family Loft AU21-TUNA-0058 0 0000-00-00 00:00:00.000 0.000 00:00:00
Tuna Family Loft AU21-TUNA-0059 0 0000-00-00 00:00:00.000 0.000 00:00:00
Tuna Family Loft AU21-TUNA-0063 0 0000-00-00 00:00:00.000 0.000 00:00:00
Tuna Family Loft AU21-TUNA-0071 0 0000-00-00 00:00:00.000 0.000 00:00:00
Tuna Family Loft AU21-TUNA-0074 0 0000-00-00 00:00:00.000 0.000 00:00:00
Tuna Family Loft AU21-TUNA-0077 0 0000-00-00 00:00:00.000 0.000 00:00:00